createdAt,value
2022-08-17T00:02:26.182Z,2.28
2022-08-17T00:07:30.292Z,2.20
2022-08-17T00:12:42.562Z,2.60
2022-08-17T00:17:48.249Z,2.60
2022-08-17T00:22:50.365Z,2.63
2022-08-17T00:27:52.327Z,2.50
2022-08-17T00:33:13.673Z,3.08
2022-08-17T00:38:18.497Z,2.70
2022-08-17T00:43:37.086Z,2.78
2022-08-17T00:48:39.627Z,2.83
2022-08-17T00:53:45.065Z,2.50
2022-08-17T00:58:49.970Z,2.58
2022-08-17T01:03:53.440Z,2.50
2022-08-17T01:09:03.427Z,2.40
2022-08-17T01:14:05.284Z,2.75
2022-08-17T01:19:16.269Z,2.33
2022-08-17T01:24:18.525Z,2.70
2022-08-17T01:29:22.028Z,3.03
2022-08-17T01:34:24.987Z,3.17
2022-08-17T01:39:43.858Z,2.60
2022-08-17T01:44:45.654Z,2.97
2022-08-17T01:49:47.634Z,3.20
2022-08-17T01:54:51.284Z,3.30
2022-08-17T01:59:53.099Z,2.90
2022-08-17T02:04:54.993Z,2.88
2022-08-17T02:09:57.169Z,3.00
2022-08-17T02:15:01.942Z,3.10
2022-08-17T02:20:04.818Z,3.20
2022-08-17T02:30:59.491Z,3.17
2022-08-17T02:35:37.301Z,3.00
2022-08-17T02:40:40.479Z,3.37
2022-08-17T02:45:42.320Z,3.50
2022-08-17T02:50:44.114Z,3.90
2022-08-17T02:55:45.979Z,3.63
2022-08-17T03:00:48.535Z,3.53
2022-08-17T03:05:53.475Z,4.68
2022-08-17T03:10:55.484Z,4.72
2022-08-17T03:15:57.582Z,3.80
2022-08-17T03:21:01.447Z,4.80
2022-08-17T03:26:03.277Z,3.95
2022-08-17T03:31:07.201Z,3.90
2022-08-17T03:36:09.407Z,4.13
2022-08-17T03:41:11.270Z,4.00
2022-08-17T03:46:35.279Z,5.22
2022-08-17T03:51:55.844Z,4.45
2022-08-17T03:57:05.290Z,4.93
2022-08-17T04:02:11.142Z,4.63
2022-08-17T04:07:12.964Z,5.55
2022-08-17T04:12:20.464Z,4.80
2022-08-17T04:17:27.623Z,4.22
2022-08-17T04:22:32.137Z,4.70
2022-08-17T04:27:36.411Z,4.32
2022-08-17T04:33:04.099Z,4.60
2022-08-17T04:38:10.472Z,5.80
2022-08-17T04:43:19.107Z,5.47
2022-08-17T04:48:20.980Z,5.50
2022-08-17T04:53:22.829Z,5.35
2022-08-17T04:58:25.167Z,4.88
2022-08-17T05:03:27.528Z,5.13
2022-08-17T05:08:29.382Z,4.80
2022-08-17T05:13:31.618Z,3.85
2022-08-17T05:18:33.451Z,3.45
2022-08-17T05:23:42.972Z,4.38
2022-08-17T05:28:45.494Z,3.58
2022-08-17T05:33:49.486Z,3.38
2022-08-17T05:38:51.403Z,3.30
2022-08-17T05:43:56.361Z,4.07
2022-08-17T05:49:03.174Z,3.08
2022-08-17T05:54:26.584Z,3.30
2022-08-17T05:59:53.025Z,4.03
2022-08-17T06:05:14.868Z,3.85
2022-08-17T06:10:35.506Z,3.80
2022-08-17T06:15:49.448Z,3.83
2022-08-17T06:20:56.635Z,4.18
2022-08-17T06:26:03.909Z,2.85
2022-08-17T06:31:15.529Z,2.78
2022-08-17T06:36:35.381Z,3.13
2022-08-17T06:41:53.894Z,3.13
2022-08-17T06:47:08.999Z,3.80
2022-08-17T06:52:46.107Z,2.72
2022-08-17T06:57:57.999Z,3.20
2022-08-17T07:03:12.652Z,2.80
2022-08-17T07:08:47.351Z,2.70
2022-08-17T07:14:00.519Z,2.80
2022-08-17T07:19:02.498Z,2.65
2022-08-17T07:24:29.444Z,2.40
2022-08-17T07:29:40.466Z,2.40
2022-08-17T07:35:05.136Z,2.70
2022-08-17T07:40:21.483Z,2.15
2022-08-17T07:45:42.168Z,2.00
2022-08-17T07:50:49.572Z,2.28
2022-08-17T07:55:54.219Z,2.83
2022-08-17T08:01:11.625Z,2.55
2022-08-17T08:06:22.433Z,2.42
2022-08-17T08:11:36.541Z,2.55
2022-08-17T08:16:40.521Z,2.85
2022-08-17T08:21:49.101Z,2.28
2022-08-17T08:27:21.910Z,2.25
2022-08-17T08:32:51.608Z,2.40
2022-08-17T08:38:19.941Z,2.15
2022-08-17T08:43:32.055Z,2.30
2022-08-17T08:54:28.307Z,2.30
2022-08-17T08:59:41.880Z,2.20
2022-08-17T09:05:16.503Z,2.30
2022-08-17T09:10:27.136Z,2.58
2022-08-17T09:15:37.909Z,2.40
2022-08-17T09:20:50.316Z,2.63
2022-08-17T09:26:07.786Z,1.98
2022-08-17T09:31:16.702Z,2.20
2022-08-17T09:36:33.408Z,2.27
2022-08-17T09:42:06.456Z,2.13
2022-08-17T09:47:34.548Z,2.25
2022-08-17T09:52:36.429Z,2.25
2022-08-17T09:57:59.841Z,1.90
2022-08-17T10:03:04.597Z,2.10
2022-08-17T10:08:51.900Z,2.33
2022-08-17T10:14:37.860Z,2.95
2022-08-17T10:19:40.267Z,2.33
2022-08-17T10:25:23.538Z,2.05
2022-08-17T10:30:33.192Z,2.15
2022-08-17T10:35:42.444Z,2.30
2022-08-17T10:41:18.552Z,2.10
2022-08-17T10:46:31.547Z,2.30
2022-08-17T10:51:38.005Z,2.70
2022-08-17T10:56:47.741Z,2.10
2022-08-17T11:01:49.463Z,2.00
2022-08-17T11:06:51.207Z,2.00
2022-08-17T11:12:13.952Z,2.60
2022-08-17T11:17:37.099Z,1.80
2022-08-17T11:22:58.034Z,2.20
2022-08-17T11:28:13.943Z,1.90
2022-08-17T11:33:34.153Z,2.20
2022-08-17T11:39:14.638Z,2.20
2022-08-17T11:44:28.957Z,1.90
2022-08-17T11:49:58.295Z,2.13
2022-08-17T11:55:17.983Z,1.80
2022-08-17T12:00:46.996Z,2.15
2022-08-17T12:05:53.482Z,2.20
2022-08-17T12:12:11.350Z,1.90
2022-08-17T12:16:57.617Z,1.90
2022-08-17T12:22:21.909Z,1.80
2022-08-17T12:27:53.137Z,2.08
2022-08-17T12:32:50.147Z,1.70
2022-08-17T12:37:52.272Z,2.20
2022-08-17T12:43:06.712Z,1.92
2022-08-17T12:48:21.377Z,2.22
2022-08-17T12:53:30.171Z,1.70
2022-08-17T12:58:47.372Z,2.00
2022-08-17T13:03:52.414Z,2.08
2022-08-17T13:08:54.745Z,2.40
2022-08-17T13:14:08.351Z,2.65
2022-08-17T13:19:20.218Z,2.40
2022-08-17T13:24:53.157Z,2.30
2022-08-17T13:30:07.085Z,1.90
2022-08-17T13:35:33.438Z,2.05
2022-08-17T13:40:51.904Z,2.28
2022-08-17T13:45:53.838Z,2.00
2022-08-17T13:50:55.590Z,1.77
2022-08-17T13:56:38.636Z,2.47
2022-08-17T14:01:43.478Z,1.80
2022-08-17T14:06:54.503Z,2.30
2022-08-17T14:11:58.419Z,1.92
2022-08-17T14:17:00.389Z,2.10
2022-08-17T14:22:02.822Z,1.88
2022-08-17T14:27:06.435Z,2.08
2022-08-17T14:32:17.109Z,1.70
2022-08-17T14:37:20.660Z,2.08
2022-08-17T14:42:29.580Z,1.90
2022-08-17T14:47:32.200Z,1.98
2022-08-17T14:52:33.975Z,1.80
2022-08-17T14:57:35.810Z,1.95
2022-08-17T15:02:46.658Z,1.77
2022-08-17T15:07:48.551Z,1.55
2022-08-17T15:12:50.732Z,1.50
2022-08-17T15:17:52.901Z,1.83
2022-08-17T15:22:55.917Z,1.77
2022-08-17T15:27:58.753Z,2.10
2022-08-17T15:33:01.823Z,2.10
2022-08-17T15:38:11.552Z,1.90
2022-08-17T15:43:27.263Z,1.80
2022-08-17T15:48:51.072Z,1.83
2022-08-17T15:53:59.038Z,1.80
2022-08-17T15:59:01.280Z,1.88
2022-08-17T16:04:06.745Z,2.17
2022-08-17T16:09:09.133Z,1.70
2022-08-17T16:14:10.920Z,1.67
2022-08-17T16:19:16.271Z,1.70
2022-08-17T16:24:18.045Z,2.20
2022-08-17T16:29:19.866Z,1.70
2022-08-17T16:34:21.928Z,1.83
2022-08-17T16:39:25.609Z,1.90
2022-08-17T16:44:31.690Z,1.67
2022-08-17T16:49:36.989Z,1.77
2022-08-17T16:54:43.787Z,1.75
2022-08-17T16:59:50.160Z,1.67
2022-08-17T17:05:03.764Z,2.00
2022-08-17T17:10:09.874Z,1.83
2022-08-17T17:15:11.790Z,1.95
2022-08-17T17:20:16.628Z,1.70
2022-08-17T17:25:27.139Z,1.95
2022-08-17T17:30:49.843Z,2.00
2022-08-17T17:35:59.285Z,1.42
2022-08-17T17:41:05.673Z,1.60
2022-08-17T17:46:37.878Z,1.88
2022-08-17T17:52:07.821Z,1.60
2022-08-17T17:57:31.691Z,1.95
2022-08-17T18:02:51.203Z,2.30
2022-08-17T18:08:32.175Z,1.85
2022-08-17T18:13:54.289Z,1.38
2022-08-17T18:18:58.013Z,1.42
2022-08-17T18:24:02.329Z,1.67
2022-08-17T18:29:30.497Z,1.65
2022-08-17T18:34:48.664Z,1.75
2022-08-17T18:39:50.833Z,2.53
2022-08-17T18:44:55.254Z,1.90
2022-08-17T18:50:19.438Z,1.80
2022-08-17T18:55:29.276Z,2.20
2022-08-17T19:00:40.509Z,2.13
2022-08-17T19:05:46.245Z,1.98
2022-08-17T19:10:55.639Z,2.30
2022-08-17T19:16:18.114Z,2.28
2022-08-17T19:21:25.806Z,2.60
2022-08-17T19:26:53.776Z,2.58
2022-08-17T19:31:55.244Z,2.35
2022-08-17T19:37:06.958Z,1.90
2022-08-17T19:42:21.791Z,2.35
2022-08-17T19:47:53.638Z,1.88
2022-08-17T19:53:18.490Z,2.03
2022-08-17T19:58:37.063Z,1.65
2022-08-17T20:04:04.921Z,1.98
2022-08-17T20:09:34.651Z,2.97
2022-08-17T20:14:51.707Z,2.67
2022-08-17T20:20:06.281Z,2.90
2022-08-17T20:25:16.090Z,2.58
2022-08-17T20:30:24.356Z,2.35
2022-08-17T20:35:32.946Z,2.38
2022-08-17T20:40:59.758Z,2.55
2022-08-17T20:46:12.001Z,2.30
2022-08-17T20:52:00.565Z,2.75
2022-08-17T20:57:03.193Z,2.33
2022-08-17T21:02:21.804Z,2.50
2022-08-17T21:07:41.050Z,2.50
2022-08-17T21:13:04.482Z,2.30
2022-08-17T21:18:20.979Z,2.35
2022-08-17T21:23:59.381Z,2.13
2022-08-17T21:29:29.861Z,2.42
2022-08-17T21:34:43.135Z,2.22
2022-08-17T21:39:50.496Z,2.22
2022-08-17T21:44:57.991Z,1.90
2022-08-17T21:50:22.716Z,1.80
2022-08-17T21:55:29.394Z,2.25
2022-08-17T22:00:32.903Z,2.10
2022-08-17T22:10:42.371Z,2.13
2022-08-17T22:16:27.949Z,2.20
2022-08-17T22:21:29.197Z,2.30
2022-08-17T22:27:01.324Z,3.03
2022-08-17T22:32:03.598Z,2.90
2022-08-17T22:37:27.975Z,2.70
2022-08-17T22:42:29.998Z,2.55
2022-08-17T22:47:40.135Z,2.33
2022-08-17T22:53:04.014Z,2.20
2022-08-17T22:58:36.627Z,2.78
2022-08-17T23:03:53.521Z,2.30
2022-08-17T23:08:57.648Z,2.30
2022-08-17T23:13:59.947Z,2.58
2022-08-17T23:19:01.731Z,2.40
2022-08-17T23:24:07.560Z,3.00
2022-08-17T23:29:09.729Z,2.78
2022-08-17T23:34:14.636Z,2.22
2022-08-17T23:39:17.696Z,3.35
2022-08-17T23:44:31.053Z,2.33
2022-08-17T23:49:33.278Z,3.00
2022-08-17T23:54:41.532Z,2.90
2022-08-17T23:59:44.006Z,2.50
